sensor_id;sensor_type;location;lat;lon;timestamp;pressure;altitude;pressure_sealevel;temperature;humidity
63654;BME280;49809;47.418;19.080;2024-01-11T00:00:47;101944.25;;;-7.66;100.00
63654;BME280;49809;47.418;19.080;2024-01-11T00:03:50;101939.50;;;-7.72;100.00
63654;BME280;49809;47.418;19.080;2024-01-11T00:06:57;101942.41;;;-7.64;100.00
63654;BME280;49809;47.418;19.080;2024-01-11T00:10:01;101943.44;;;-7.66;100.00
63654;BME280;49809;47.418;19.080;2024-01-11T00:13:04;101940.59;;;-7.62;100.00
63654;BME280;49809;47.418;19.080;2024-01-11T00:16:07;101939.84;;;-7.64;100.00
63654;BME280;49809;47.418;19.080;2024-01-11T00:19:12;101936.84;;;-7.70;100.00
63654;BME280;49809;47.418;19.080;2024-01-11T00:22:15;101934.53;;;-7.75;100.00
63654;BME280;49809;47.418;19.080;2024-01-11T00:25:20;101931.97;;;-7.75;100.00
63654;BME280;49809;47.418;19.080;2024-01-11T00:28:26;101927.63;;;-7.74;100.00
63654;BME280;49809;47.418;19.080;2024-01-11T00:31:29;101923.53;;;-7.77;100.00
63654;BME280;49809;47.418;19.080;2024-01-11T00:34:39;101927.12;;;-7.79;100.00
63654;BME280;49809;47.418;19.080;2024-01-11T00:37:49;101930.03;;;-7.71;100.00
63654;BME280;49809;47.418;19.080;2024-01-11T00:40:57;101920.59;;;-7.85;100.00
63654;BME280;49809;47.418;19.080;2024-01-11T00:44:00;101915.63;;;-7.88;100.00
63654;BME280;49809;47.418;19.080;2024-01-11T00:47:06;101912.78;;;-7.83;100.00
63654;BME280;49809;47.418;19.080;2024-01-11T00:50:09;101913.59;;;-7.83;100.00
63654;BME280;49809;47.418;19.080;2024-01-11T00:53:12;101911.87;;;-7.97;100.00
63654;BME280;49809;47.418;19.080;2024-01-11T00:56:21;101909.22;;;-7.95;100.00
63654;BME280;49809;47.418;19.080;2024-01-11T00:59:27;101912.16;;;-8.01;100.00
63654;BME280;49809;47.418;19.080;2024-01-11T01:02:30;101909.59;;;-8.01;100.00
63654;BME280;49809;47.418;19.080;2024-01-11T01:05:35;101910.59;;;-8.04;100.00
63654;BME280;49809;47.418;19.080;2024-01-11T01:08:44;101901.59;;;-7.97;100.00
63654;BME280;49809;47.418;19.080;2024-01-11T01:11:49;101892.72;;;-8.05;100.00
63654;BME280;49809;47.418;19.080;2024-01-11T01:14:55;101879.78;;;-8.04;100.00
63654;BME280;49809;47.418;19.080;2024-01-11T01:18:03;101887.56;;;-8.05;100.00
63654;BME280;49809;47.418;19.080;2024-01-11T01:21:08;101880.84;;;-8.08;100.00
63654;BME280;49809;47.418;19.080;2024-01-11T01:24:11;101884.44;;;-8.10;100.00
63654;BME280;49809;47.418;19.080;2024-01-11T01:27:14;101879.12;;;-8.07;100.00
63654;BME280;49809;47.418;19.080;2024-01-11T01:30:17;101873.97;;;-8.07;100.00
63654;BME280;49809;47.418;19.080;2024-01-11T01:33:20;101870.50;;;-8.06;100.00
63654;BME280;49809;47.418;19.080;2024-01-11T01:36:24;101866.75;;;-8.15;100.00
63654;BME280;49809;47.418;19.080;2024-01-11T01:39:26;101862.53;;;-8.16;100.00
63654;BME280;49809;47.418;19.080;2024-01-11T01:42:32;101862.25;;;-8.11;100.00
63654;BME280;49809;47.418;19.080;2024-01-11T01:45:37;101862.97;;;-8.09;100.00
63654;BME280;49809;47.418;19.080;2024-01-11T01:48:40;101857.09;;;-8.11;100.00
63654;BME280;49809;47.418;19.080;2024-01-11T01:51:45;101858.13;;;-8.14;100.00
63654;BME280;49809;47.418;19.080;2024-01-11T01:54:49;101858.56;;;-8.21;100.00
63654;BME280;49809;47.418;19.080;2024-01-11T01:57:57;101851.06;;;-8.24;100.00
63654;BME280;49809;47.418;19.080;2024-01-11T02:01:02;101838.22;;;-8.24;100.00
63654;BME280;49809;47.418;19.080;2024-01-11T02:04:05;101838.38;;;-8.27;100.00
63654;BME280;49809;47.418;19.080;2024-01-11T02:07:08;101836.97;;;-8.31;100.00
63654;BME280;49809;47.418;19.080;2024-01-11T02:10:12;101835.69;;;-8.39;100.00
63654;BME280;49809;47.418;19.080;2024-01-11T02:13:15;101824.88;;;-8.44;100.00
63654;BME280;49809;47.418;19.080;2024-01-11T02:16:20;101824.31;;;-8.34;100.00
63654;BME280;49809;47.418;19.080;2024-01-11T02:19:23;101825.78;;;-8.45;100.00
63654;BME280;49809;47.418;19.080;2024-01-11T02:22:35;101813.28;;;-8.51;100.00
63654;BME280;49809;47.418;19.080;2024-01-11T02:25:41;101807.25;;;-8.50;100.00
63654;BME280;49809;47.418;19.080;2024-01-11T02:28:46;101802.59;;;-8.43;100.00
63654;BME280;49809;47.418;19.080;2024-01-11T02:31:49;101812.56;;;-8.39;100.00
63654;BME280;49809;47.418;19.080;2024-01-11T02:34:51;101804.88;;;-8.39;100.00
63654;BME280;49809;47.418;19.080;2024-01-11T02:37:59;101799.34;;;-8.47;100.00
63654;BME280;49809;47.418;19.080;2024-01-11T02:41:02;101795.16;;;-8.33;100.00
63654;BME280;49809;47.418;19.080;2024-01-11T02:44:06;101790.94;;;-8.49;100.00
63654;BME280;49809;47.418;19.080;2024-01-11T02:47:09;101793.28;;;-8.31;100.00
63654;BME280;49809;47.418;19.080;2024-01-11T02:50:12;101784.12;;;-8.36;100.00
63654;BME280;49809;47.418;19.080;2024-01-11T02:53:18;101796.25;;;-8.38;100.00
63654;BME280;49809;47.418;19.080;2024-01-11T02:56:21;101781.50;;;-8.48;100.00
63654;BME280;49809;47.418;19.080;2024-01-11T02:59:26;101781.56;;;-8.50;100.00
63654;BME280;49809;47.418;19.080;2024-01-11T03:02:29;101773.31;;;-8.55;100.00
63654;BME280;49809;47.418;19.080;2024-01-11T03:05:34;101772.34;;;-8.52;100.00
63654;BME280;49809;47.418;19.080;2024-01-11T03:08:37;101764.91;;;-8.57;100.00
63654;BME280;49809;47.418;19.080;2024-01-11T03:11:43;101776.09;;;-8.58;100.00
63654;BME280;49809;47.418;19.080;2024-01-11T03:14:48;101765.34;;;-8.64;100.00
63654;BME280;49809;47.418;19.080;2024-01-11T03:17:52;101762.72;;;-8.63;100.00
63654;BME280;49809;47.418;19.080;2024-01-11T03:20:55;101754.47;;;-8.68;100.00
63654;BME280;49809;47.418;19.080;2024-01-11T03:23:58;101759.59;;;-8.68;100.00
63654;BME280;49809;47.418;19.080;2024-01-11T03:27:04;101751.06;;;-8.68;100.00
63654;BME280;49809;47.418;19.080;2024-01-11T03:30:09;101749.13;;;-8.65;100.00
63654;BME280;49809;47.418;19.080;2024-01-11T03:33:15;101745.66;;;-8.64;100.00
63654;BME280;49809;47.418;19.080;2024-01-11T03:36:25;101744.56;;;-8.74;100.00
63654;BME280;49809;47.418;19.080;2024-01-11T03:39:34;101739.22;;;-8.71;100.00
63654;BME280;49809;47.418;19.080;2024-01-11T03:42:40;101728.03;;;-8.70;100.00
63654;BME280;49809;47.418;19.080;2024-01-11T03:45:44;101723.09;;;-8.73;100.00
63654;BME280;49809;47.418;19.080;2024-01-11T03:48:52;101719.91;;;-8.76;100.00
63654;BME280;49809;47.418;19.080;2024-01-11T03:51:55;101714.22;;;-8.67;100.00
63654;BME280;49809;47.418;19.080;2024-01-11T03:54:58;101718.88;;;-8.74;100.00
63654;BME280;49809;47.418;19.080;2024-01-11T03:58:04;101704.41;;;-8.75;100.00
63654;BME280;49809;47.418;19.080;2024-01-11T04:01:09;101704.25;;;-8.86;100.00
63654;BME280;49809;47.418;19.080;2024-01-11T04:04:15;101704.87;;;-8.83;100.00
63654;BME280;49809;47.418;19.080;2024-01-11T04:07:18;101694.78;;;-8.86;100.00
63654;BME280;49809;47.418;19.080;2024-01-11T04:10:21;101701.28;;;-8.80;100.00
63654;BME280;49809;47.418;19.080;2024-01-11T04:17:29;101705.31;;;-8.90;100.00
63654;BME280;49809;47.418;19.080;2024-01-11T04:20:32;101692.88;;;-8.82;100.00
63654;BME280;49809;47.418;19.080;2024-01-11T04:23:35;101705.88;;;-8.85;100.00
63654;BME280;49809;47.418;19.080;2024-01-11T04:26:39;101709.72;;;-8.92;100.00
63654;BME280;49809;47.418;19.080;2024-01-11T04:29:41;101705.44;;;-8.92;100.00
63654;BME280;49809;47.418;19.080;2024-01-11T04:32:47;101698.63;;;-8.78;100.00
63654;BME280;49809;47.418;19.080;2024-01-11T04:35:53;101698.63;;;-8.78;100.00
63654;BME280;49809;47.418;19.080;2024-01-11T04:38:55;101705.03;;;-8.86;100.00
63654;BME280;49809;47.418;19.080;2024-01-11T04:42:01;101713.69;;;-8.87;100.00
63654;BME280;49809;47.418;19.080;2024-01-11T04:45:05;101717.06;;;-8.86;100.00
63654;BME280;49809;47.418;19.080;2024-01-11T04:48:10;101706.25;;;-8.91;100.00
63654;BME280;49809;47.418;19.080;2024-01-11T04:51:15;101700.94;;;-8.88;100.00
63654;BME280;49809;47.418;19.080;2024-01-11T04:54:22;101710.09;;;-8.98;100.00
63654;BME280;49809;47.418;19.080;2024-01-11T04:57:28;101703.22;;;-8.98;100.00
63654;BME280;49809;47.418;19.080;2024-01-11T05:00:31;101709.25;;;-8.99;100.00
63654;BME280;49809;47.418;19.080;2024-01-11T05:03:37;101702.47;;;-9.00;100.00
63654;BME280;49809;47.418;19.080;2024-01-11T05:06:40;101711.91;;;-9.00;100.00
63654;BME280;49809;47.418;19.080;2024-01-11T05:09:43;101706.97;;;-9.03;100.00
63654;BME280;49809;47.418;19.080;2024-01-11T05:12:48;101697.53;;;-9.03;100.00
63654;BME280;49809;47.418;19.080;2024-01-11T05:15:51;101697.91;;;-9.09;100.00
63654;BME280;49809;47.418;19.080;2024-01-11T05:18:57;101705.50;;;-9.07;100.00
63654;BME280;49809;47.418;19.080;2024-01-11T05:22:03;101698.56;;;-9.05;100.00
63654;BME280;49809;47.418;19.080;2024-01-11T05:25:06;101699.81;;;-9.12;100.00
63654;BME280;49809;47.418;19.080;2024-01-11T05:28:11;101694.50;;;-9.09;100.00
63654;BME280;49809;47.418;19.080;2024-01-11T05:31:15;101692.13;;;-9.12;100.00
63654;BME280;49809;47.418;19.080;2024-01-11T05:34:20;101702.03;;;-9.20;100.00
63654;BME280;49809;47.418;19.080;2024-01-11T05:37:22;101699.53;;;-9.22;100.00
63654;BME280;49809;47.418;19.080;2024-01-11T05:40:25;101703.12;;;-9.25;100.00
63654;BME280;49809;47.418;19.080;2024-01-11T05:43:28;101705.78;;;-9.12;100.00
63654;BME280;49809;47.418;19.080;2024-01-11T05:46:31;101711.63;;;-9.10;100.00
63654;BME280;49809;47.418;19.080;2024-01-11T05:49:40;101704.87;;;-9.11;100.00
63654;BME280;49809;47.418;19.080;2024-01-11T05:52:46;101702.19;;;-9.09;100.00
63654;BME280;49809;47.418;19.080;2024-01-11T05:55:51;101702.38;;;-9.12;100.00
63654;BME280;49809;47.418;19.080;2024-01-11T05:58:59;101700.03;;;-9.15;100.00
63654;BME280;49809;47.418;19.080;2024-01-11T06:02:02;101703.31;;;-9.13;100.00
63654;BME280;49809;47.418;19.080;2024-01-11T06:05:08;101708.44;;;-9.13;100.00
63654;BME280;49809;47.418;19.080;2024-01-11T06:08:15;101710.28;;;-9.01;100.00
63654;BME280;49809;47.418;19.080;2024-01-11T06:11:21;101713.66;;;-9.15;100.00
63654;BME280;49809;47.418;19.080;2024-01-11T06:14:30;101712.66;;;-9.12;100.00
63654;BME280;49809;47.418;19.080;2024-01-11T06:17:33;101705.59;;;-9.23;100.00
63654;BME280;49809;47.418;19.080;2024-01-11T06:20:36;101703.12;;;-9.25;100.00
63654;BME280;49809;47.418;19.080;2024-01-11T06:23:43;101696.34;;;-9.26;100.00
63654;BME280;49809;47.418;19.080;2024-01-11T06:26:46;101693.03;;;-9.28;100.00
63654;BME280;49809;47.418;19.080;2024-01-11T06:29:49;101695.88;;;-9.18;100.00
63654;BME280;49809;47.418;19.080;2024-01-11T06:32:52;101700.75;;;-9.13;100.00
63654;BME280;49809;47.418;19.080;2024-01-11T06:35:55;101687.91;;;-9.13;100.00
63654;BME280;49809;47.418;19.080;2024-01-11T06:39:02;101690.47;;;-9.13;100.00
63654;BME280;49809;47.418;19.080;2024-01-11T06:42:06;101690.47;;;-9.13;100.00
63654;BME280;49809;47.418;19.080;2024-01-11T06:45:11;101683.34;;;-9.08;100.00
63654;BME280;49809;47.418;19.080;2024-01-11T06:48:14;101679.22;;;-9.11;100.00
63654;BME280;49809;47.418;19.080;2024-01-11T06:51:23;101681.50;;;-9.06;100.00
63654;BME280;49809;47.418;19.080;2024-01-11T06:54:26;101690.47;;;-8.99;100.00
63654;BME280;49809;47.418;19.080;2024-01-11T06:57:29;101682.44;;;-8.93;100.00
63654;BME280;49809;47.418;19.080;2024-01-11T07:00:32;101682.44;;;-8.93;100.00
63654;BME280;49809;47.418;19.080;2024-01-11T07:03:35;101678.59;;;-8.86;100.00
63654;BME280;49809;47.418;19.080;2024-01-11T07:06:39;101681.50;;;-8.78;100.00
63654;BME280;49809;47.418;19.080;2024-01-11T07:09:41;101680.09;;;-8.69;100.00
63654;BME280;49809;47.418;19.080;2024-01-11T07:12:45;101672.75;;;-8.61;100.00
63654;BME280;49809;47.418;19.080;2024-01-11T07:15:50;101679.78;;;-8.51;100.00
63654;BME280;49809;47.418;19.080;2024-01-11T07:18:54;101682.06;;;-8.46;100.00
63654;BME280;49809;47.418;19.080;2024-01-11T07:22:02;101679.06;;;-8.39;100.00
63654;BME280;49809;47.418;19.080;2024-01-11T07:25:08;101666.53;;;-8.30;100.00
63654;BME280;49809;47.418;19.080;2024-01-11T07:28:12;101674.53;;;-8.22;100.00
63654;BME280;49809;47.418;19.080;2024-01-11T07:31:15;101677.34;;;-8.13;100.00
63654;BME280;49809;47.418;19.080;2024-01-11T07:34:23;101672.94;;;-8.11;100.00
63654;BME280;49809;47.418;19.080;2024-01-11T07:37:34;101676.69;;;-8.02;100.00
63654;BME280;49809;47.418;19.080;2024-01-11T07:40:39;101682.97;;;-7.94;100.00
63654;BME280;49809;47.418;19.080;2024-01-11T07:43:50;101679.91;;;-7.86;100.00
63654;BME280;49809;47.418;19.080;2024-01-11T07:46:56;101677.28;;;-7.72;100.00
63654;BME280;49809;47.418;19.080;2024-01-11T07:50:12;101669.91;;;-7.51;100.00
63654;BME280;49809;47.418;19.080;2024-01-11T07:53:15;101668.59;;;-7.31;100.00
63654;BME280;49809;47.418;19.080;2024-01-11T07:56:19;101667.22;;;-7.24;100.00
63654;BME280;49809;47.418;19.080;2024-01-11T07:59:27;101670.22;;;-7.18;100.00
63654;BME280;49809;47.418;19.080;2024-01-11T08:02:34;101671.44;;;-6.98;100.00
63654;BME280;49809;47.418;19.080;2024-01-11T08:05:37;101666.28;;;-6.98;100.00
63654;BME280;49809;47.418;19.080;2024-01-11T08:08:40;101657.84;;;-6.87;100.00
63654;BME280;49809;47.418;19.080;2024-01-11T08:16:24;101650.50;;;-6.44;100.00
63654;BME280;49809;47.418;19.080;2024-01-11T08:19:27;101638.81;;;-6.37;100.00
63654;BME280;49809;47.418;19.080;2024-01-11T08:22:44;101639.22;;;-6.31;100.00
63654;BME280;49809;47.418;19.080;2024-01-11T08:25:49;101634.13;;;-6.20;100.00
63654;BME280;49809;47.418;19.080;2024-01-11T08:28:52;101632.06;;;-6.03;100.00
63654;BME280;49809;47.418;19.080;2024-01-11T08:32:01;101625.31;;;-5.93;100.00
63654;BME280;49809;47.418;19.080;2024-01-11T08:35:29;101621.81;;;-5.70;100.00
63654;BME280;49809;47.418;19.080;2024-01-11T08:38:32;101622.69;;;-5.47;100.00
63654;BME280;49809;47.418;19.080;2024-01-11T08:41:36;101618.12;;;-5.21;100.00
63654;BME280;49809;47.418;19.080;2024-01-11T08:44:44;101616.47;;;-5.00;100.00
63654;BME280;49809;47.418;19.080;2024-01-11T08:47:48;101617.41;;;-5.01;100.00
63654;BME280;49809;47.418;19.080;2024-01-11T08:50:53;101612.72;;;-4.85;100.00
63654;BME280;49809;47.418;19.080;2024-01-11T08:53:59;101611.56;;;-4.49;100.00
63654;BME280;49809;47.418;19.080;2024-01-11T08:57:02;101609.69;;;-4.47;100.00
63654;BME280;49809;47.418;19.080;2024-01-11T09:00:08;101604.88;;;-4.20;100.00
63654;BME280;49809;47.418;19.080;2024-01-11T09:03:14;101607.16;;;-4.06;100.00
63654;BME280;49809;47.418;19.080;2024-01-11T09:06:20;101602.91;;;-3.75;100.00
63654;BME280;49809;47.418;19.080;2024-01-11T09:09:27;101601.69;;;-3.71;100.00
63654;BME280;49809;47.418;19.080;2024-01-11T09:12:33;101609.31;;;-3.48;100.00
63654;BME280;49809;47.418;19.080;2024-01-11T09:15:38;101600.53;;;-3.36;100.00
63654;BME280;49809;47.418;19.080;2024-01-11T09:18:44;101590.56;;;-3.41;100.00
63654;BME280;49809;47.418;19.080;2024-01-11T09:21:54;101583.78;;;-3.32;100.00
63654;BME280;49809;47.418;19.080;2024-01-11T09:25:01;101586.31;;;-3.12;99.70
63654;BME280;49809;47.418;19.080;2024-01-11T09:28:06;101574.62;;;-2.96;98.67
63654;BME280;49809;47.418;19.080;2024-01-11T09:31:12;101572.66;;;-2.64;93.73
63654;BME280;49809;47.418;19.080;2024-01-11T09:34:20;101573.91;;;-2.39;90.88
63654;BME280;49809;47.418;19.080;2024-01-11T09:37:26;101562.16;;;-2.24;88.22
63654;BME280;49809;47.418;19.080;2024-01-11T09:40:33;101555.72;;;-1.91;84.35
63654;BME280;49809;47.418;19.080;2024-01-11T09:43:41;101551.25;;;-1.62;79.70
63654;BME280;49809;47.418;19.080;2024-01-11T09:46:49;101530.56;;;-1.44;78.13
63654;BME280;49809;47.418;19.080;2024-01-11T09:49:55;101513.88;;;-1.42;77.23
63654;BME280;49809;47.418;19.080;2024-01-11T09:53:00;101501.94;;;-1.35;76.64
63654;BME280;49809;47.418;19.080;2024-01-11T09:56:10;101495.78;;;-1.34;76.14
63654;BME280;49809;47.418;19.080;2024-01-11T09:59:15;101485.22;;;-1.22;72.94
63654;BME280;49809;47.418;19.080;2024-01-11T10:02:22;101485.88;;;-1.20;70.08
63654;BME280;49809;47.418;19.080;2024-01-11T10:05:29;101487.50;;;-1.19;72.07
63654;BME280;49809;47.418;19.080;2024-01-11T10:08:35;101477.19;;;-1.11;72.06
63654;BME280;49809;47.418;19.080;2024-01-11T10:11:42;101470.53;;;-1.14;71.87
63654;BME280;49809;47.418;19.080;2024-01-11T10:14:47;101471.13;;;-1.02;73.55
63654;BME280;49809;47.418;19.080;2024-01-11T10:17:59;101467.84;;;-1.04;72.60
63654;BME280;49809;47.418;19.080;2024-01-11T10:21:03;101471.59;;;-1.07;72.27
63654;BME280;49809;47.418;19.080;2024-01-11T10:24:10;101462.66;;;-1.04;72.69
63654;BME280;49809;47.418;19.080;2024-01-11T10:27:15;101452.78;;;-1.01;73.04
63654;BME280;49809;47.418;19.080;2024-01-11T10:30:18;101441.56;;;-1.01;72.82
63654;BME280;49809;47.418;19.080;2024-01-11T10:33:28;101431.41;;;-0.95;73.95
63654;BME280;49809;47.418;19.080;2024-01-11T10:36:31;101437.88;;;-0.99;73.83
63654;BME280;49809;47.418;19.080;2024-01-11T10:39:37;101439.06;;;-0.93;73.83
63654;BME280;49809;47.418;19.080;2024-01-11T10:42:47;101437.47;;;-0.86;73.68
63654;BME280;49809;47.418;19.080;2024-01-11T10:46:10;101440.09;;;-0.86;73.56
63654;BME280;49809;47.418;19.080;2024-01-11T10:49:17;101436.91;;;-0.80;73.99
63654;BME280;49809;47.418;19.080;2024-01-11T10:52:28;101426.44;;;-0.88;73.58
63654;BME280;49809;47.418;19.080;2024-01-11T10:55:39;101417.06;;;-0.81;74.76
63654;BME280;49809;47.418;19.080;2024-01-11T10:58:44;101414.25;;;-0.88;74.81
63654;BME280;49809;47.418;19.080;2024-01-11T11:01:48;101413.00;;;-0.83;75.05
63654;BME280;49809;47.418;19.080;2024-01-11T11:04:52;101406.84;;;-0.82;75.19
63654;BME280;49809;47.418;19.080;2024-01-11T11:07:58;101410.72;;;-0.61;75.48
63654;BME280;49809;47.418;19.080;2024-01-11T11:11:07;101392.56;;;-0.53;74.07
63654;BME280;49809;47.418;19.080;2024-01-11T11:14:14;101382.28;;;-0.36;74.78
63654;BME280;49809;47.418;19.080;2024-01-11T11:17:18;101373.50;;;-0.35;73.82
63654;BME280;49809;47.418;19.080;2024-01-11T11:20:24;101370.19;;;-0.46;75.39
63654;BME280;49809;47.418;19.080;2024-01-11T11:23:27;101358.31;;;-0.48;73.78
63654;BME280;49809;47.418;19.080;2024-01-11T11:26:32;101369.03;;;-0.51;74.06
63654;BME280;49809;47.418;19.080;2024-01-11T11:29:35;101363.25;;;-0.37;73.32
63654;BME280;49809;47.418;19.080;2024-01-11T11:32:38;101367.47;;;-0.10;72.84
63654;BME280;49809;47.418;19.080;2024-01-11T11:35:46;101377.72;;;0.33;71.69
63654;BME280;49809;47.418;19.080;2024-01-11T11:38:51;101360.25;;;0.18;70.74
63654;BME280;49809;47.418;19.080;2024-01-11T11:41:54;101354.09;;;0.35;71.09
63654;BME280;49809;47.418;19.080;2024-01-11T11:45:03;101348.59;;;0.46;71.24
63654;BME280;49809;47.418;19.080;2024-01-11T11:51:39;101327.91;;;0.36;71.21
63654;BME280;49809;47.418;19.080;2024-01-11T11:54:42;101325.78;;;0.32;71.14
63654;BME280;49809;47.418;19.080;2024-01-11T11:57:52;101331.53;;;0.60;70.68
63654;BME280;49809;47.418;19.080;2024-01-11T12:01:00;101327.56;;;0.31;71.69
63654;BME280;49809;47.418;19.080;2024-01-11T12:04:10;101324.00;;;0.49;71.18
63654;BME280;49809;47.418;19.080;2024-01-11T12:07:15;101316.19;;;0.32;71.95
63654;BME280;49809;47.418;19.080;2024-01-11T12:10:19;101309.00;;;0.34;70.93
63654;BME280;49809;47.418;19.080;2024-01-11T12:13:28;101316.03;;;0.42;71.42
63654;BME280;49809;47.418;19.080;2024-01-11T12:16:33;101309.69;;;0.44;71.37
63654;BME280;49809;47.418;19.080;2024-01-11T12:19:36;101294.53;;;0.32;71.25
63654;BME280;49809;47.418;19.080;2024-01-11T12:22:39;101292.47;;;0.43;71.84
63654;BME280;49809;47.418;19.080;2024-01-11T12:25:42;101283.34;;;0.56;71.52
63654;BME280;49809;47.418;19.080;2024-01-11T12:28:45;101286.59;;;0.74;70.83
63654;BME280;49809;47.418;19.080;2024-01-11T12:31:52;101293.09;;;0.70;70.78
63654;BME280;49809;47.418;19.080;2024-01-11T12:34:55;101292.44;;;0.60;70.84
63654;BME280;49809;47.418;19.080;2024-01-11T12:38:03;101281.72;;;0.63;70.86
63654;BME280;49809;47.418;19.080;2024-01-11T12:41:10;101277.31;;;0.71;70.16
63654;BME280;49809;47.418;19.080;2024-01-11T12:44:13;101271.59;;;0.60;69.47
63654;BME280;49809;47.418;19.080;2024-01-11T12:47:17;101273.56;;;0.74;69.26
63654;BME280;49809;47.418;19.080;2024-01-11T12:50:20;101273.87;;;1.03;69.44
63654;BME280;49809;47.418;19.080;2024-01-11T12:53:26;101279.53;;;1.23;68.81
63654;BME280;49809;47.418;19.080;2024-01-11T12:56:29;101281.63;;;1.36;68.36
63654;BME280;49809;47.418;19.080;2024-01-11T12:59:34;101269.25;;;1.29;67.24
63654;BME280;49809;47.418;19.080;2024-01-11T13:02:40;101269.03;;;1.47;67.03
63654;BME280;49809;47.418;19.080;2024-01-11T13:05:46;101255.84;;;1.49;66.90
63654;BME280;49809;47.418;19.080;2024-01-11T13:08:51;101250.91;;;1.54;66.70
63654;BME280;49809;47.418;19.080;2024-01-11T13:11:59;101253.63;;;1.29;68.24
63654;BME280;49809;47.418;19.080;2024-01-11T13:15:07;101246.75;;;1.28;67.30
63654;BME280;49809;47.418;19.080;2024-01-11T13:18:14;101236.69;;;1.09;68.07
63654;BME280;49809;47.418;19.080;2024-01-11T13:21:19;101226.00;;;0.96;69.58
63654;BME280;49809;47.418;19.080;2024-01-11T13:24:22;101223.81;;;1.08;68.23
63654;BME280;49809;47.418;19.080;2024-01-11T13:27:29;101216.13;;;1.22;65.63
63654;BME280;49809;47.418;19.080;2024-01-11T13:30:37;101209.19;;;1.46;64.35
63654;BME280;49809;47.418;19.080;2024-01-11T13:33:44;101211.03;;;1.37;63.76
63654;BME280;49809;47.418;19.080;2024-01-11T13:36:51;101202.25;;;1.30;63.96
63654;BME280;49809;47.418;19.080;2024-01-11T13:39:56;101196.28;;;1.52;64.24
63654;BME280;49809;47.418;19.080;2024-01-11T13:43:01;101199.22;;;1.80;63.03
63654;BME280;49809;47.418;19.080;2024-01-11T13:46:12;101193.69;;;1.83;62.15
63654;BME280;49809;47.418;19.080;2024-01-11T13:49:22;101202.34;;;1.75;63.06
63654;BME280;49809;47.418;19.080;2024-01-11T13:52:28;101191.53;;;1.56;64.59
63654;BME280;49809;47.418;19.080;2024-01-11T13:55:34;101191.72;;;1.15;66.04
63654;BME280;49809;47.418;19.080;2024-01-11T13:58:42;101177.56;;;1.02;66.92
63654;BME280;49809;47.418;19.080;2024-01-11T14:01:47;101178.28;;;0.79;68.56
63654;BME280;49809;47.418;19.080;2024-01-11T14:04:50;101168.50;;;0.73;69.35
63654;BME280;49809;47.418;19.080;2024-01-11T14:07:54;101165.13;;;0.49;70.10
63654;BME280;49809;47.418;19.080;2024-01-11T14:11:03;101159.91;;;0.49;70.34
63654;BME280;49809;47.418;19.080;2024-01-11T14:14:06;101153.41;;;0.44;70.35
63654;BME280;49809;47.418;19.080;2024-01-11T14:17:10;101142.03;;;0.37;70.83
63654;BME280;49809;47.418;19.080;2024-01-11T14:20:13;101142.19;;;0.36;70.69
63654;BME280;49809;47.418;19.080;2024-01-11T14:23:18;101131.28;;;0.24;70.85
63654;BME280;49809;47.418;19.080;2024-01-11T14:26:26;101121.22;;;0.13;70.77
63654;BME280;49809;47.418;19.080;2024-01-11T14:29:32;101109.66;;;0.08;70.84
63654;BME280;49809;47.418;19.080;2024-01-11T14:32:47;101096.16;;;0.04;70.87
63654;BME280;49809;47.418;19.080;2024-01-11T14:35:59;101104.16;;;-0.06;70.99
63654;BME280;49809;47.418;19.080;2024-01-11T14:39:04;101108.19;;;-0.03;71.25
63654;BME280;49809;47.418;19.080;2024-01-11T14:42:10;101107.22;;;-0.10;70.96
63654;BME280;49809;47.418;19.080;2024-01-11T14:45:14;101106.72;;;-0.14;71.09
63654;BME280;49809;47.418;19.080;2024-01-11T14:48:20;101114.84;;;-0.09;70.91
63654;BME280;49809;47.418;19.080;2024-01-11T14:51:23;101130.31;;;-0.15;70.87
63654;BME280;49809;47.418;19.080;2024-01-11T14:54:32;101134.53;;;-0.22;71.08
63654;BME280;49809;47.418;19.080;2024-01-11T14:57:39;101119.56;;;-0.28;71.73
63654;BME280;49809;47.418;19.080;2024-01-11T15:01:15;101122.34;;;-0.30;72.22
63654;BME280;49809;47.418;19.080;2024-01-11T15:08:36;101110.78;;;-0.35;71.61
63654;BME280;49809;47.418;19.080;2024-01-11T15:11:42;101102.78;;;-0.42;71.72
63654;BME280;49809;47.418;19.080;2024-01-11T15:14:47;101098.06;;;-0.38;71.11
63654;BME280;49809;47.418;19.080;2024-01-11T15:18:13;101085.56;;;-0.43;71.37
63654;BME280;49809;47.418;19.080;2024-01-11T15:21:19;101083.44;;;-0.48;71.48
63654;BME280;49809;47.418;19.080;2024-01-11T15:24:24;101078.22;;;-0.48;70.74
63654;BME280;49809;47.418;19.080;2024-01-11T15:27:30;101085.69;;;-0.53;70.87
63654;BME280;49809;47.418;19.080;2024-01-11T15:30:34;101095.81;;;-0.50;71.76
63654;BME280;49809;47.418;19.080;2024-01-11T15:33:37;101104.22;;;-0.56;71.69
63654;BME280;49809;47.418;19.080;2024-01-11T15:36:45;101103.28;;;-0.55;72.39
63654;BME280;49809;47.418;19.080;2024-01-11T15:39:47;101102.25;;;-0.62;73.16
63654;BME280;49809;47.418;19.080;2024-01-11T15:42:51;101101.28;;;-0.69;74.08
63654;BME280;49809;47.418;19.080;2024-01-11T15:45:54;101097.38;;;-0.73;74.72
63654;BME280;49809;47.418;19.080;2024-01-11T15:49:00;101084.53;;;-0.74;75.39
63654;BME280;49809;47.418;19.080;2024-01-11T15:52:05;101068.09;;;-0.83;76.30
63654;BME280;49809;47.418;19.080;2024-01-11T15:55:09;101058.00;;;-0.86;77.09
63654;BME280;49809;47.418;19.080;2024-01-11T15:58:12;101072.50;;;-0.83;77.78
63654;BME280;49809;47.418;19.080;2024-01-11T16:01:15;101086.25;;;-0.91;78.25
63654;BME280;49809;47.418;19.080;2024-01-11T16:04:23;101086.25;;;-0.91;78.84
63654;BME280;49809;47.418;19.080;2024-01-11T16:07:27;101085.28;;;-0.98;79.68